createdAt,value
2023-01-21T00:00:22.408Z,100.00
2023-01-21T00:02:54.503Z,100.00
2023-01-21T00:05:26.506Z,100.00
2023-01-21T00:08:01.747Z,100.00
2023-01-21T00:10:34.529Z,100.00
2023-01-21T00:13:06.833Z,100.00
2023-01-21T00:15:39.069Z,100.00
2023-01-21T00:18:11.150Z,100.00
2023-01-21T00:20:44.630Z,100.00
2023-01-21T00:23:17.377Z,100.00
2023-01-21T00:25:49.458Z,100.00
2023-01-21T00:28:21.647Z,100.00
2023-01-21T00:30:56.508Z,100.00
2023-01-21T00:33:28.982Z,100.00
2023-01-21T00:36:01.747Z,100.00
2023-01-21T00:38:34.825Z,100.00
2023-01-21T00:41:08.341Z,100.00
2023-01-21T00:43:40.935Z,100.00
2023-01-21T00:46:13.254Z,100.00
2023-01-21T00:48:45.403Z,100.00
2023-01-21T00:51:17.569Z,100.00
2023-01-21T00:53:50.279Z,100.00
2023-01-21T00:56:22.352Z,100.00
2023-01-21T00:58:54.561Z,100.00
2023-01-21T01:01:29.658Z,100.00
2023-01-21T01:04:01.738Z,100.00
2023-01-21T01:06:33.987Z,100.00
2023-01-21T01:09:07.267Z,100.00
2023-01-21T01:11:39.392Z,100.00
2023-01-21T01:14:11.392Z,100.00
2023-01-21T01:16:43.532Z,100.00
2023-01-21T01:19:15.593Z,100.00
2023-01-21T01:21:47.740Z,100.00
2023-01-21T01:24:20.467Z,100.00
2023-01-21T01:26:52.546Z,100.00
2023-01-21T01:29:24.571Z,100.00
2023-01-21T01:31:56.655Z,100.00
2023-01-21T01:34:28.745Z,100.00
2023-01-21T01:37:00.937Z,100.00
2023-01-21T01:39:33.607Z,100.00
2023-01-21T01:42:05.745Z,100.00
2023-01-21T01:44:58.297Z,100.00
2023-01-21T01:47:33.942Z,100.00
2023-01-21T01:50:08.747Z,100.00
2023-01-21T01:52:42.021Z,100.00
2023-01-21T01:55:15.340Z,100.00
2023-01-21T01:57:49.727Z,100.00
2023-01-21T02:00:22.365Z,100.00
2023-01-21T02:03:12.907Z,100.00
2023-01-21T02:05:46.611Z,100.00
2023-01-21T02:08:18.841Z,100.00
2023-01-21T02:10:55.393Z,100.00
2023-01-21T02:13:29.065Z,100.00
2023-01-21T02:16:08.183Z,100.00
2023-01-21T02:18:47.160Z,100.00
2023-01-21T02:21:36.782Z,100.00
2023-01-21T02:24:27.704Z,100.00
2023-01-21T02:27:30.648Z,100.00
2023-01-21T02:30:21.840Z,100.00
2023-01-21T02:33:09.209Z,100.00
2023-01-21T02:35:43.237Z,100.00
2023-01-21T02:38:21.175Z,100.00
2023-01-21T02:40:57.927Z,100.00
2023-01-21T02:43:33.302Z,100.00
2023-01-21T02:46:08.834Z,100.00
2023-01-21T02:48:45.173Z,100.00
2023-01-21T02:51:18.442Z,100.00
2023-01-21T02:53:50.664Z,100.00
2023-01-21T02:56:24.555Z,100.00
2023-01-21T02:58:58.661Z,100.00
2023-01-21T03:01:37.964Z,100.00
2023-01-21T03:04:19.993Z,100.00
2023-01-21T03:06:58.433Z,100.00
2023-01-21T03:09:31.824Z,100.00
2023-01-21T03:12:19.621Z,100.00
2023-01-21T03:15:13.261Z,100.00
2023-01-21T03:17:49.096Z,100.00
2023-01-21T03:20:24.282Z,100.00
2023-01-21T03:22:59.928Z,100.00
2023-01-21T03:25:33.506Z,100.00
2023-01-21T03:28:07.557Z,100.00
2023-01-21T03:30:40.902Z,100.00
2023-01-21T03:33:14.575Z,100.00
2023-01-21T03:35:48.629Z,100.00
2023-01-21T03:38:22.543Z,100.00
2023-01-21T03:40:58.227Z,100.00
2023-01-21T03:43:30.785Z,100.00
2023-01-21T03:46:04.283Z,100.00
2023-01-21T03:48:40.122Z,100.00
2023-01-21T03:51:15.459Z,100.00
2023-01-21T03:53:51.317Z,100.00
2023-01-21T03:56:23.635Z,100.00
2023-01-21T03:58:55.717Z,100.00
2023-01-21T04:01:27.785Z,100.00
2023-01-21T04:04:00.003Z,100.00
2023-01-21T04:06:33.240Z,100.00
2023-01-21T04:09:05.839Z,100.00
2023-01-21T04:11:37.900Z,100.00
2023-01-21T04:14:10.124Z,100.00
2023-01-21T04:16:42.268Z,100.00
2023-01-21T04:19:14.398Z,100.00
2023-01-21T04:21:47.092Z,100.00
2023-01-21T04:24:19.247Z,100.00
2023-01-21T04:26:51.399Z,100.00
2023-01-21T04:29:23.669Z,100.00
2023-01-21T04:31:55.717Z,100.00
2023-01-21T04:34:27.781Z,100.00
2023-01-21T04:37:00.967Z,100.00
2023-01-21T04:39:33.208Z,100.00
2023-01-21T04:42:05.261Z,100.00
2023-01-21T04:44:37.412Z,100.00
2023-01-21T04:47:09.386Z,100.00
2023-01-21T04:49:41.482Z,100.00
2023-01-21T04:52:14.120Z,100.00
2023-01-21T04:54:46.251Z,100.00
2023-01-21T04:57:18.296Z,100.00
2023-01-21T04:59:50.403Z,100.00
2023-01-21T05:02:22.491Z,100.00
2023-01-21T05:04:54.597Z,100.00
2023-01-21T05:07:27.517Z,100.00
2023-01-21T05:09:59.601Z,100.00
2023-01-21T05:12:31.637Z,100.00
2023-01-21T05:15:04.298Z,100.00
2023-01-21T05:17:36.364Z,100.00
2023-01-21T05:20:09.028Z,100.00
2023-01-21T05:22:41.708Z,100.00
2023-01-21T05:25:14.244Z,100.00
2023-01-21T05:27:50.342Z,100.00
2023-01-21T05:30:22.678Z,100.00
2023-01-21T05:32:55.011Z,100.00
2023-01-21T05:35:26.994Z,100.00
2023-01-21T05:38:00.531Z,100.00
2023-01-21T05:40:32.803Z,100.00
2023-01-21T05:43:04.883Z,100.00
2023-01-21T05:45:36.920Z,100.00
2023-01-21T05:48:09.017Z,100.00
2023-01-21T05:50:41.135Z,100.00
2023-01-21T05:53:13.826Z,100.00
2023-01-21T05:55:45.958Z,100.00
2023-01-21T05:58:18.035Z,100.00
2023-01-21T06:00:50.312Z,100.00
2023-01-21T06:03:22.384Z,100.00
2023-01-21T06:05:54.546Z,100.00
2023-01-21T06:08:27.268Z,100.00
2023-01-21T06:10:59.355Z,100.00
2023-01-21T06:13:31.330Z,100.00
2023-01-21T06:16:03.624Z,100.00
2023-01-21T06:18:35.672Z,100.00
2023-01-21T06:21:07.825Z,100.00
2023-01-21T06:23:40.488Z,100.00
2023-01-21T06:26:12.577Z,100.00
2023-01-21T06:28:44.578Z,100.00
2023-01-21T06:31:16.849Z,100.00
2023-01-21T06:33:48.907Z,100.00
2023-01-21T06:36:20.995Z,100.00
2023-01-21T06:38:53.655Z,100.00
2023-01-21T06:41:25.708Z,100.00
2023-01-21T06:43:57.735Z,100.00
2023-01-21T06:46:30.092Z,100.00
2023-01-21T06:49:02.138Z,100.00
2023-01-21T06:51:34.374Z,100.00
2023-01-21T06:54:07.064Z,100.00
2023-01-21T06:56:40.398Z,100.00
2023-01-21T06:59:12.452Z,100.00
2023-01-21T07:01:44.479Z,100.00
2023-01-21T07:04:16.627Z,100.00
2023-01-21T07:06:49.409Z,100.00
2023-01-21T07:09:22.236Z,100.00
2023-01-21T07:11:55.123Z,100.00
2023-01-21T07:14:27.384Z,100.00
2023-01-21T07:16:59.517Z,100.00
2023-01-21T07:19:31.557Z,100.00
2023-01-21T07:22:03.668Z,100.00
2023-01-21T07:24:36.562Z,100.00
2023-01-21T07:27:08.819Z,100.00
2023-01-21T07:29:40.855Z,100.00
2023-01-21T07:32:13.171Z,100.00
2023-01-21T07:34:45.393Z,100.00
2023-01-21T07:37:17.463Z,100.00
2023-01-21T07:39:50.201Z,100.00
2023-01-21T07:42:22.286Z,100.00
2023-01-21T07:44:55.183Z,100.00
2023-01-21T07:47:27.273Z,100.00
2023-01-21T07:50:04.090Z,100.00
2023-01-21T07:52:36.196Z,100.00
2023-01-21T07:55:12.392Z,100.00
2023-01-21T07:57:44.729Z,100.00
2023-01-21T08:00:17.651Z,100.00
2023-01-21T08:02:50.707Z,100.00
2023-01-21T08:05:23.581Z,100.00
2023-01-21T08:07:56.848Z,100.00
2023-01-21T08:10:29.725Z,100.00
2023-01-21T08:13:03.071Z,100.00
2023-01-21T08:15:35.141Z,100.00
2023-01-21T08:18:07.331Z,100.00
2023-01-21T08:20:39.569Z,100.00
2023-01-21T08:23:11.665Z,100.00
2023-01-21T08:25:44.505Z,100.00
2023-01-21T08:28:16.637Z,100.00
2023-01-21T08:30:48.911Z,100.00
2023-01-21T08:33:21.197Z,100.00
2023-01-21T08:35:58.491Z,100.00
2023-01-21T08:38:30.516Z,100.00
2023-01-21T08:41:04.052Z,100.00
2023-01-21T08:43:36.316Z,100.00
2023-01-21T08:46:08.422Z,100.00
2023-01-21T08:48:40.507Z,100.00
2023-01-21T08:51:12.827Z,100.00
2023-01-21T08:53:44.940Z,100.00
2023-01-21T08:56:18.075Z,100.00
2023-01-21T08:58:53.710Z,100.00
2023-01-21T09:01:26.354Z,100.00
2023-01-21T09:03:59.204Z,100.00
2023-01-21T09:06:31.251Z,100.00
2023-01-21T09:09:03.328Z,100.00
2023-01-21T09:11:36.093Z,100.00
2023-01-21T09:14:08.136Z,100.00
2023-01-21T09:16:40.283Z,100.00
2023-01-21T09:19:12.286Z,100.00
2023-01-21T09:21:44.371Z,100.00
2023-01-21T09:24:16.413Z,100.00
2023-01-21T09:26:49.434Z,100.00
2023-01-21T09:29:21.464Z,100.00
2023-01-21T09:31:53.570Z,100.00
2023-01-21T09:34:25.907Z,100.00
2023-01-21T09:36:57.944Z,100.00
2023-01-21T09:39:30.043Z,100.00
2023-01-21T09:42:02.834Z,100.00
2023-01-21T09:44:36.205Z,100.00
2023-01-21T09:47:11.361Z,100.00
2023-01-21T09:49:47.785Z,100.00
2023-01-21T09:52:24.074Z,100.00
2023-01-21T09:54:57.033Z,100.00
2023-01-21T09:57:46.085Z,100.00
2023-01-21T10:00:24.166Z,100.00
2023-01-21T10:02:59.750Z,100.00
2023-01-21T10:05:55.700Z,100.00
2023-01-21T10:08:31.497Z,100.00
2023-01-21T10:11:11.387Z,100.00
2023-01-21T10:13:52.946Z,100.00
2023-01-21T10:16:27.251Z,100.00
2023-01-21T10:19:01.450Z,100.00
2023-01-21T10:21:35.886Z,98.59
2023-01-21T10:24:11.762Z,97.00
2023-01-21T10:26:46.032Z,96.91
2023-01-21T10:29:20.881Z,95.92
2023-01-21T10:31:54.942Z,96.04
2023-01-21T10:34:29.117Z,96.79
2023-01-21T10:37:11.500Z,95.85
2023-01-21T10:39:48.777Z,95.19
2023-01-21T10:42:38.692Z,93.74
2023-01-21T10:45:17.463Z,95.09
2023-01-21T10:47:54.612Z,96.08
2023-01-21T10:50:31.468Z,95.64
2023-01-21T10:53:07.803Z,93.86
2023-01-21T10:55:45.305Z,94.37
2023-01-21T10:58:24.672Z,89.88
2023-01-21T11:00:58.813Z,89.80
2023-01-21T11:03:35.102Z,87.39
2023-01-21T11:06:08.637Z,87.99
2023-01-21T11:08:43.266Z,86.99
2023-01-21T11:11:18.325Z,84.66
2023-01-21T11:13:50.467Z,83.74
2023-01-21T11:16:35.708Z,86.57
2023-01-21T11:19:07.871Z,85.78
2023-01-21T11:21:39.939Z,84.91
2023-01-21T11:24:19.995Z,84.80
2023-01-21T11:26:53.208Z,83.39
2023-01-21T11:29:25.859Z,84.96
2023-01-21T11:32:02.317Z,81.82
2023-01-21T11:34:34.908Z,77.67
2023-01-21T11:37:08.139Z,79.62
2023-01-21T11:39:48.177Z,80.86
2023-01-21T11:42:20.539Z,77.70
2023-01-21T11:44:53.969Z,74.49
2023-01-21T11:47:28.408Z,77.07
2023-01-21T11:50:10.775Z,75.60
2023-01-21T11:52:43.063Z,75.20
2023-01-21T11:55:19.671Z,74.71
2023-01-21T11:57:53.513Z,74.73
2023-01-21T12:00:26.823Z,74.76
2023-01-21T12:03:01.018Z,76.10
2023-01-21T12:05:34.449Z,76.14
2023-01-21T12:08:07.167Z,74.69
2023-01-21T12:10:43.156Z,74.01
2023-01-21T12:13:17.619Z,74.79
2023-01-21T12:16:05.484Z,74.72
2023-01-21T12:18:44.983Z,73.32
2023-01-21T12:21:22.806Z,76.48
2023-01-21T12:24:01.817Z,77.55
2023-01-21T12:26:36.230Z,77.66
2023-01-21T12:29:19.462Z,79.74
2023-01-21T12:31:55.202Z,79.28
2023-01-21T12:34:32.444Z,76.79
2023-01-21T12:37:11.278Z,76.28
2023-01-21T12:39:44.293Z,74.26
2023-01-21T12:42:21.160Z,76.72
2023-01-21T12:44:55.473Z,75.86
2023-01-21T12:47:29.911Z,76.11
2023-01-21T12:50:22.335Z,76.47
2023-01-21T12:53:04.267Z,72.87
2023-01-21T12:55:45.188Z,73.27
2023-01-21T12:58:18.758Z,77.16
2023-01-21T13:00:52.150Z,76.54
2023-01-21T13:03:27.325Z,77.03
2023-01-21T13:06:02.641Z,76.35
2023-01-21T13:08:40.000Z,73.29
2023-01-21T13:11:17.132Z,74.40
2023-01-21T13:13:52.963Z,76.13
2023-01-21T13:16:26.027Z,75.94
2023-01-21T13:18:58.133Z,76.73
2023-01-21T13:21:35.874Z,77.65
2023-01-21T13:24:14.389Z,77.66
2023-01-21T13:26:49.913Z,76.38
2023-01-21T13:29:28.903Z,78.63
2023-01-21T13:32:11.999Z,78.81
2023-01-21T13:34:48.919Z,80.56
2023-01-21T13:37:29.368Z,81.82
2023-01-21T13:40:14.648Z,81.87
2023-01-21T13:42:50.623Z,80.68
2023-01-21T13:45:27.542Z,80.64
2023-01-21T13:48:11.409Z,81.32
2023-01-21T13:50:50.040Z,80.16
2023-01-21T13:53:33.120Z,80.28
2023-01-21T13:56:14.158Z,78.92
2023-01-21T13:58:48.482Z,80.09
2023-01-21T14:01:23.527Z,78.84
2023-01-21T14:03:59.652Z,78.59
2023-01-21T14:06:35.061Z,80.04
2023-01-21T14:09:09.618Z,80.11
2023-01-21T14:11:43.360Z,80.91
2023-01-21T14:14:36.363Z,83.25
2023-01-21T14:17:18.316Z,82.80
2023-01-21T14:19:58.351Z,82.61
2023-01-21T14:22:36.440Z,81.91
2023-01-21T14:25:16.971Z,80.50
2023-01-21T14:27:53.737Z,82.34
2023-01-21T14:30:28.053Z,84.35
2023-01-21T14:33:01.967Z,85.61
2023-01-21T14:35:37.007Z,86.49
2023-01-21T14:38:12.776Z,88.32
2023-01-21T14:40:47.631Z,90.97
2023-01-21T14:43:41.433Z,91.60
2023-01-21T14:46:23.747Z,90.71
2023-01-21T14:48:57.645Z,89.37
2023-01-21T14:51:30.508Z,91.18
2023-01-21T14:54:03.701Z,91.92
2023-01-21T14:56:37.187Z,91.84
2023-01-21T14:59:25.670Z,92.60
2023-01-21T15:01:58.709Z,92.42
2023-01-21T15:04:31.799Z,93.69
2023-01-21T15:07:07.846Z,94.33
2023-01-21T15:09:42.131Z,94.40
2023-01-21T15:12:22.335Z,94.74
2023-01-21T15:14:56.151Z,95.64
2023-01-21T15:17:44.021Z,95.41
2023-01-21T15:20:34.958Z,97.74
2023-01-21T15:23:17.500Z,99.04
2023-01-21T15:26:03.102Z,99.17
2023-01-21T15:28:41.145Z,98.10
2023-01-21T15:31:33.635Z,98.16
2023-01-21T15:34:11.544Z,98.31
2023-01-21T15:36:46.343Z,98.81
2023-01-21T15:39:22.597Z,100.00
2023-01-21T15:42:04.870Z,99.41
2023-01-21T15:44:48.792Z,99.18
2023-01-21T15:47:33.465Z,100.00
2023-01-21T15:50:09.745Z,100.00
2023-01-21T15:52:48.040Z,100.00
2023-01-21T15:55:31.883Z,100.00
2023-01-21T15:58:12.893Z,100.00
2023-01-21T16:00:49.184Z,100.00
2023-01-21T16:03:24.224Z,100.00
2023-01-21T16:06:02.106Z,100.00
2023-01-21T16:08:43.790Z,100.00
2023-01-21T16:11:25.782Z,100.00
2023-01-21T16:14:06.656Z,100.00
2023-01-21T16:16:46.303Z,100.00
2023-01-21T16:19:19.928Z,100.00
2023-01-21T16:21:55.425Z,100.00
2023-01-21T16:24:28.750Z,100.00
2023-01-21T16:27:15.775Z,100.00
2023-01-21T16:29:48.081Z,100.00
2023-01-21T16:32:20.767Z,100.00
2023-01-21T16:34:53.222Z,100.00
2023-01-21T16:37:26.410Z,100.00
2023-01-21T16:40:20.392Z,100.00
2023-01-21T16:43:05.018Z,100.00
2023-01-21T16:45:37.113Z,100.00
2023-01-21T16:48:19.003Z,100.00
2023-01-21T16:50:51.332Z,100.00
2023-01-21T16:53:24.086Z,100.00
2023-01-21T16:55:56.821Z,100.00
2023-01-21T16:58:29.751Z,100.00
2023-01-21T17:01:08.346Z,100.00
2023-01-21T17:03:41.499Z,100.00
2023-01-21T17:06:19.007Z,100.00
2023-01-21T17:08:53.333Z,100.00
2023-01-21T17:11:25.697Z,100.00
2023-01-21T17:13:58.701Z,100.00
2023-01-21T17:16:34.016Z,100.00
2023-01-21T17:19:08.809Z,100.00
2023-01-21T17:21:43.742Z,100.00
2023-01-21T17:24:16.639Z,100.00
2023-01-21T17:26:50.417Z,100.00
2023-01-21T17:29:26.091Z,100.00
2023-01-21T17:31:59.107Z,100.00
2023-01-21T17:34:32.500Z,100.00
2023-01-21T17:37:25.783Z,100.00
2023-01-21T17:40:00.384Z,100.00
2023-01-21T17:42:38.675Z,100.00
2023-01-21T17:45:16.715Z,100.00
2023-01-21T17:48:07.575Z,100.00
2023-01-21T17:50:45.772Z,100.00
2023-01-21T17:53:20.107Z,100.00
2023-01-21T17:55:56.228Z,100.00
2023-01-21T17:58:35.908Z,100.00
2023-01-21T18:01:08.701Z,100.00
2023-01-21T18:03:40.810Z,100.00
2023-01-21T18:06:16.437Z,100.00
2023-01-21T18:08:49.793Z,100.00
2023-01-21T18:11:22.357Z,100.00
2023-01-21T18:13:54.400Z,100.00
2023-01-21T18:16:26.578Z,100.00
2023-01-21T18:18:58.943Z,100.00
2023-01-21T18:21:32.066Z,100.00
2023-01-21T18:24:04.359Z,100.00
2023-01-21T18:26:37.984Z,100.00
2023-01-21T18:29:10.877Z,100.00
2023-01-21T18:31:43.123Z,100.00
2023-01-21T18:34:15.414Z,100.00
2023-01-21T18:36:48.339Z,100.00
2023-01-21T18:39:20.346Z,100.00
2023-01-21T18:41:52.832Z,100.00
2023-01-21T18:44:24.863Z,100.00
2023-01-21T18:46:57.121Z,100.00
2023-01-21T18:49:29.420Z,100.00
2023-01-21T18:52:02.256Z,100.00
2023-01-21T18:54:34.757Z,100.00
2023-01-21T18:57:09.517Z,100.00
2023-01-21T18:59:41.779Z,100.00
2023-01-21T19:02:16.078Z,100.00
2023-01-21T19:04:48.496Z,100.00
2023-01-21T19:07:22.448Z,100.00
2023-01-21T19:09:54.586Z,100.00
2023-01-21T19:12:26.637Z,100.00
2023-01-21T19:14:59.600Z,100.00
2023-01-21T19:17:33.045Z,100.00
2023-01-21T19:20:08.788Z,100.00
2023-01-21T19:22:42.239Z,100.00
2023-01-21T19:25:14.523Z,100.00
2023-01-21T19:27:47.757Z,100.00
2023-01-21T19:30:20.709Z,100.00
2023-01-21T19:32:54.494Z,100.00
2023-01-21T19:35:29.180Z,100.00
2023-01-21T19:38:04.499Z,100.00
2023-01-21T19:40:36.979Z,100.00
2023-01-21T19:43:10.319Z,100.00
2023-01-21T19:45:42.940Z,100.00
2023-01-21T19:48:18.124Z,100.00
2023-01-21T19:50:51.534Z,100.00
2023-01-21T19:53:25.265Z,100.00
2023-01-21T19:55:59.341Z,100.00
2023-01-21T19:58:32.024Z,100.00
2023-01-21T20:01:05.077Z,100.00
2023-01-21T20:03:38.805Z,100.00
2023-01-21T20:06:11.998Z,100.00
2023-01-21T20:08:45.048Z,100.00
2023-01-21T20:11:17.381Z,100.00
2023-01-21T20:13:49.939Z,100.00
2023-01-21T20:16:23.310Z,100.00
2023-01-21T20:18:55.559Z,100.00
2023-01-21T20:21:27.955Z,100.00
2023-01-21T20:24:01.609Z,100.00
2023-01-21T20:26:34.967Z,100.00
2023-01-21T20:29:11.325Z,100.00
2023-01-21T20:31:43.451Z,100.00
2023-01-21T20:34:15.457Z,100.00
2023-01-21T20:36:50.169Z,100.00
2023-01-21T20:39:23.550Z,100.00
2023-01-21T20:41:55.602Z,100.00
2023-01-21T20:44:28.095Z,100.00
2023-01-21T20:47:01.210Z,100.00
2023-01-21T20:49:33.265Z,100.00
2023-01-21T20:52:05.364Z,100.00
2023-01-21T20:54:38.413Z,100.00
2023-01-21T20:57:12.021Z,100.00
2023-01-21T20:59:44.068Z,100.00
2023-01-21T21:02:16.473Z,100.00
2023-01-21T21:04:48.614Z,100.00
2023-01-21T21:07:25.183Z,100.00
2023-01-21T21:09:59.357Z,100.00
2023-01-21T21:12:31.466Z,100.00
2023-01-21T21:15:03.640Z,100.00
2023-01-21T21:17:35.812Z,100.00
2023-01-21T21:20:13.616Z,100.00
2023-01-21T21:22:46.088Z,100.00
2023-01-21T21:25:20.024Z,100.00
2023-01-21T21:27:52.609Z,100.00
2023-01-21T21:30:25.647Z,100.00
2023-01-21T21:32:58.477Z,100.00
2023-01-21T21:35:31.396Z,100.00
2023-01-21T21:38:04.129Z,100.00
2023-01-21T21:40:36.909Z,100.00
2023-01-21T21:43:30.698Z,100.00
2023-01-21T21:46:24.201Z,100.00
2023-01-21T21:48:56.725Z,100.00
2023-01-21T21:51:31.069Z,100.00
2023-01-21T21:54:04.251Z,100.00
2023-01-21T21:56:37.287Z,100.00
2023-01-21T21:59:10.276Z,100.00
2023-01-21T22:01:42.949Z,100.00
2023-01-21T22:04:15.376Z,100.00
2023-01-21T22:06:47.386Z,100.00
2023-01-21T22:09:19.430Z,100.00
2023-01-21T22:11:52.097Z,100.00
2023-01-21T22:14:24.164Z,100.00
2023-01-21T22:16:56.264Z,100.00
2023-01-21T22:19:28.373Z,100.00
2023-01-21T22:22:00.355Z,100.00
2023-01-21T22:24:32.446Z,100.00
2023-01-21T22:27:07.532Z,100.00
2023-01-21T22:29:39.663Z,100.00
2023-01-21T22:32:11.695Z,100.00
2023-01-21T22:34:43.758Z,100.00
2023-01-21T22:37:15.839Z,100.00
2023-01-21T22:39:47.896Z,100.00
2023-01-21T22:42:20.620Z,100.00
2023-01-21T22:44:52.627Z,100.00
2023-01-21T22:47:25.360Z,100.00
2023-01-21T22:49:57.745Z,100.00
2023-01-21T22:52:29.853Z,100.00
2023-01-21T22:55:02.002Z,100.00
2023-01-21T22:57:34.747Z,100.00
2023-01-21T23:00:08.679Z,100.00
2023-01-21T23:02:40.754Z,100.00
2023-01-21T23:05:12.792Z,100.00
2023-01-21T23:07:45.024Z,100.00
2023-01-21T23:10:17.407Z,100.00
2023-01-21T23:12:50.517Z,100.00
2023-01-21T23:15:23.235Z,100.00
2023-01-21T23:17:55.265Z,100.00
2023-01-21T23:20:28.271Z,100.00
2023-01-21T23:23:00.909Z,100.00
2023-01-21T23:25:33.012Z,100.00
2023-01-21T23:28:05.667Z,100.00
2023-01-21T23:30:37.727Z,100.00
2023-01-21T23:33:10.460Z,100.00
2023-01-21T23:35:42.562Z,100.00
2023-01-21T23:38:14.553Z,100.00
2023-01-21T23:40:46.616Z,100.00
2023-01-21T23:43:23.086Z,100.00
2023-01-21T23:45:55.344Z,100.00
2023-01-21T23:48:27.350Z,100.00
2023-01-21T23:51:03.125Z,100.00
2023-01-21T23:53:35.300Z,100.00
2023-01-21T23:56:09.135Z,100.00
2023-01-21T23:58:41.906Z,100.00
